createdAt,value
2022-08-27T00:01:25.930Z,18.22
2022-08-27T00:03:56.936Z,18.21
2022-08-27T00:06:25.196Z,18.23
2022-08-27T00:08:53.258Z,18.24
2022-08-27T00:11:22.032Z,18.23
2022-08-27T00:13:50.028Z,18.25
2022-08-27T00:16:18.250Z,18.24
2022-08-27T00:18:48.085Z,18.25
2022-08-27T00:21:16.542Z,18.28
2022-08-27T00:23:44.370Z,18.28
2022-08-27T00:26:12.326Z,18.33
2022-08-27T00:28:40.667Z,18.32
2022-08-27T00:31:08.547Z,18.34
2022-08-27T00:33:40.038Z,18.36
2022-08-27T00:36:08.484Z,18.36
2022-08-27T00:38:36.502Z,18.38
2022-08-27T00:41:04.303Z,18.42
2022-08-27T00:43:33.935Z,18.43
2022-08-27T00:46:08.512Z,18.43
2022-08-27T00:48:36.781Z,18.45
2022-08-27T00:51:05.106Z,18.47
2022-08-27T00:53:34.432Z,18.47
2022-08-27T00:56:10.434Z,18.47
2022-08-27T00:58:41.106Z,18.47
2022-08-27T01:01:13.758Z,18.47
2022-08-27T01:03:42.059Z,18.47
2022-08-27T01:06:11.989Z,18.47
2022-08-27T01:08:55.006Z,18.49
2022-08-27T01:11:27.632Z,18.50
2022-08-27T01:14:01.464Z,18.51
2022-08-27T01:16:33.286Z,18.51
2022-08-27T01:19:02.180Z,18.51
2022-08-27T01:22:19.116Z,18.51
2022-08-27T01:24:54.727Z,18.51
2022-08-27T01:27:25.886Z,18.51
2022-08-27T01:29:53.787Z,18.50
2022-08-27T01:32:29.739Z,18.51
2022-08-27T01:34:57.997Z,18.52
2022-08-27T01:37:27.025Z,18.52
2022-08-27T01:39:56.480Z,18.54
2022-08-27T01:42:35.317Z,18.54
2022-08-27T01:45:10.268Z,18.56
2022-08-27T01:47:38.512Z,18.55
2022-08-27T01:50:25.812Z,18.55
2022-08-27T01:52:53.950Z,18.57
2022-08-27T01:55:24.198Z,18.59
2022-08-27T01:57:55.677Z,18.60
2022-08-27T02:00:52.035Z,18.62
2022-08-27T02:03:24.586Z,18.64
2022-08-27T02:05:52.631Z,18.66
2022-08-27T02:08:25.444Z,18.67
2022-08-27T02:10:53.407Z,18.68
2022-08-27T02:13:21.442Z,18.69
2022-08-27T02:15:49.646Z,18.70
2022-08-27T02:18:17.805Z,18.68
2022-08-27T02:20:46.397Z,18.69
2022-08-27T02:23:19.919Z,18.68
2022-08-27T02:25:50.642Z,18.70
2022-08-27T02:28:18.409Z,18.70
2022-08-27T02:30:51.974Z,18.72
2022-08-27T02:33:19.981Z,18.69
2022-08-27T02:35:47.802Z,18.66
2022-08-27T02:38:15.632Z,18.67
2022-08-27T02:40:43.500Z,18.66
2022-08-27T02:43:15.735Z,18.67
2022-08-27T02:45:44.076Z,18.68
2022-08-27T02:48:12.305Z,18.69
2022-08-27T02:50:40.339Z,18.69
2022-08-27T02:53:08.516Z,18.68
2022-08-27T02:55:37.120Z,18.68
2022-08-27T02:58:04.992Z,18.66
2022-08-27T03:00:32.910Z,18.65
2022-08-27T03:03:00.934Z,18.66
2022-08-27T03:05:29.398Z,18.64
2022-08-27T03:07:57.265Z,18.65
2022-08-27T03:10:25.143Z,18.62
2022-08-27T03:12:53.023Z,18.63
2022-08-27T03:15:21.518Z,18.63
2022-08-27T03:18:08.053Z,18.61
2022-08-27T03:20:41.932Z,18.61
2022-08-27T03:23:10.556Z,18.61
2022-08-27T03:25:38.713Z,18.60
2022-08-27T03:28:23.382Z,18.59
2022-08-27T03:30:59.625Z,18.55
2022-08-27T03:33:27.812Z,18.56
2022-08-27T03:35:55.631Z,18.56
2022-08-27T03:38:23.697Z,18.53
2022-08-27T03:40:57.483Z,18.54
2022-08-27T03:43:25.376Z,18.53
2022-08-27T03:46:01.473Z,18.53
2022-08-27T03:48:33.049Z,18.53
2022-08-27T03:51:01.152Z,18.52
2022-08-27T03:53:29.546Z,18.51
2022-08-27T03:55:57.338Z,18.51
2022-08-27T03:58:25.157Z,18.51
2022-08-27T04:00:53.075Z,18.53
2022-08-27T04:03:20.981Z,18.53
2022-08-27T04:05:53.890Z,18.53
2022-08-27T04:08:23.032Z,18.53
2022-08-27T04:10:51.182Z,18.54
2022-08-27T04:13:19.515Z,18.52
2022-08-27T04:15:51.624Z,18.53
2022-08-27T04:18:19.574Z,18.53
2022-08-27T04:20:48.353Z,18.52
2022-08-27T04:23:16.605Z,18.52
2022-08-27T04:25:44.991Z,18.52
2022-08-27T04:28:13.379Z,18.52
2022-08-27T04:30:42.252Z,18.52
2022-08-27T04:33:10.126Z,18.48
2022-08-27T04:35:43.317Z,18.51
2022-08-27T04:38:16.054Z,18.51
2022-08-27T04:41:02.658Z,18.51
2022-08-27T04:43:30.577Z,18.50
2022-08-27T04:45:58.679Z,18.49
2022-08-27T04:48:26.920Z,18.47
2022-08-27T04:50:54.820Z,18.44
2022-08-27T04:53:22.894Z,18.43
2022-08-27T04:55:52.689Z,18.44
2022-08-27T04:58:25.525Z,18.46
2022-08-27T05:00:55.439Z,18.49
2022-08-27T05:03:27.264Z,18.49
2022-08-27T05:06:00.876Z,18.50
2022-08-27T05:08:28.864Z,18.48
2022-08-27T05:10:56.620Z,18.46
2022-08-27T05:13:25.529Z,18.46
2022-08-27T05:16:00.087Z,18.44
2022-08-27T05:18:27.985Z,18.45
2022-08-27T05:20:56.135Z,18.43
2022-08-27T05:23:24.076Z,18.44
2022-08-27T05:25:55.089Z,18.44
2022-08-27T05:28:28.056Z,18.45
2022-08-27T05:30:58.109Z,18.47
2022-08-27T05:33:26.334Z,18.45
2022-08-27T05:35:55.702Z,18.47
2022-08-27T05:38:26.240Z,18.50
2022-08-27T05:41:06.978Z,18.51
2022-08-27T05:43:35.145Z,18.51
2022-08-27T05:46:06.437Z,18.52
2022-08-27T05:48:35.082Z,18.53
2022-08-27T05:51:10.708Z,18.51
2022-08-27T05:53:38.737Z,18.54
2022-08-27T05:56:06.767Z,18.56
2022-08-27T05:58:53.358Z,18.59
2022-08-27T06:01:21.657Z,18.63
2022-08-27T06:03:49.456Z,18.64
2022-08-27T06:06:17.271Z,18.63
2022-08-27T06:08:45.083Z,18.65
2022-08-27T06:11:13.143Z,18.69
2022-08-27T06:13:40.911Z,18.73
2022-08-27T06:16:15.350Z,18.87
2022-08-27T06:18:44.984Z,19.03
2022-08-27T06:21:13.001Z,19.08
2022-08-27T06:23:40.981Z,19.09
2022-08-27T06:26:10.898Z,19.13
2022-08-27T06:28:40.682Z,19.09
2022-08-27T06:31:19.461Z,19.06
2022-08-27T06:33:47.643Z,19.08
2022-08-27T06:36:17.195Z,19.05
2022-08-27T06:38:45.075Z,19.04
2022-08-27T06:41:23.821Z,19.07
2022-08-27T06:43:54.815Z,19.05
2022-08-27T06:46:24.530Z,19.13
2022-08-27T06:48:53.753Z,19.16
2022-08-27T06:51:27.379Z,19.17
2022-08-27T06:53:56.394Z,19.20
2022-08-27T06:56:24.336Z,19.19
2022-08-27T06:58:56.484Z,19.20
2022-08-27T07:01:26.360Z,19.22
2022-08-27T07:03:56.036Z,19.20
2022-08-27T07:06:25.115Z,19.21
2022-08-27T07:08:53.575Z,19.22
2022-08-27T07:11:21.783Z,19.23
2022-08-27T07:13:49.625Z,19.22
2022-08-27T07:16:22.202Z,19.23
2022-08-27T07:18:52.090Z,19.26
2022-08-27T07:21:22.941Z,19.31
2022-08-27T07:23:51.850Z,19.30
2022-08-27T07:26:20.519Z,19.33
2022-08-27T07:28:48.386Z,19.34
2022-08-27T07:31:19.860Z,19.32
2022-08-27T07:33:52.734Z,19.33
2022-08-27T07:36:22.248Z,19.33
2022-08-27T07:38:59.322Z,19.34
2022-08-27T07:41:30.498Z,19.34
2022-08-27T07:44:21.305Z,19.36
2022-08-27T07:46:54.456Z,19.37
2022-08-27T07:49:23.798Z,19.39
2022-08-27T07:51:51.938Z,19.42
2022-08-27T07:54:23.067Z,19.40
2022-08-27T07:56:55.559Z,19.35
2022-08-27T07:59:27.143Z,19.36
2022-08-27T08:02:00.777Z,19.35
2022-08-27T08:04:28.686Z,19.38
2022-08-27T08:07:01.571Z,19.39
2022-08-27T08:09:30.159Z,19.42
2022-08-27T08:11:57.943Z,19.44
2022-08-27T08:14:25.979Z,19.47
2022-08-27T08:16:53.942Z,19.48
2022-08-27T08:19:21.729Z,19.50
2022-08-27T08:21:52.979Z,19.51
2022-08-27T08:24:27.310Z,19.54
2022-08-27T08:26:55.111Z,19.58
2022-08-27T08:29:25.415Z,19.61
2022-08-27T08:31:53.927Z,19.62
2022-08-27T08:34:21.943Z,19.62
2022-08-27T08:36:54.607Z,19.64
2022-08-27T08:39:42.881Z,19.70
2022-08-27T08:42:25.495Z,19.74
2022-08-27T08:44:54.805Z,19.77
2022-08-27T08:47:34.234Z,19.82
2022-08-27T08:50:04.055Z,19.87
2022-08-27T08:53:00.484Z,19.89
2022-08-27T08:55:54.549Z,19.87
2022-08-27T08:58:43.328Z,19.88
2022-08-27T09:01:11.194Z,19.87
2022-08-27T09:03:43.125Z,19.88
2022-08-27T09:06:30.493Z,19.85
2022-08-27T09:08:58.324Z,19.90
2022-08-27T09:11:45.539Z,19.94
2022-08-27T09:14:41.284Z,19.92
2022-08-27T09:17:13.875Z,19.93
2022-08-27T09:19:41.788Z,19.95
2022-08-27T09:22:39.504Z,19.96
2022-08-27T09:25:34.266Z,20.00
2022-08-27T09:28:04.447Z,20.03
2022-08-27T09:30:34.079Z,20.02
2022-08-27T09:33:05.253Z,20.01
2022-08-27T09:35:46.258Z,19.97
2022-08-27T09:38:41.884Z,20.02
2022-08-27T09:41:21.143Z,20.04
2022-08-27T09:43:58.075Z,20.09
2022-08-27T09:46:27.193Z,20.15
2022-08-27T09:48:55.156Z,20.23
2022-08-27T09:51:29.258Z,20.31
2022-08-27T09:54:02.262Z,20.37
2022-08-27T09:56:39.819Z,20.41
2022-08-27T09:59:14.741Z,20.38
2022-08-27T10:01:54.299Z,20.45
2022-08-27T10:04:28.005Z,20.44
2022-08-27T10:06:55.954Z,20.51
2022-08-27T10:09:33.059Z,20.56
2022-08-27T10:12:07.202Z,20.62
2022-08-27T10:14:46.841Z,20.75
2022-08-27T10:17:36.359Z,20.89
2022-08-27T10:20:44.533Z,20.99
2022-08-27T10:23:43.624Z,21.07
2022-08-27T10:26:16.629Z,21.10
2022-08-27T10:28:55.750Z,21.17
2022-08-27T10:31:41.487Z,21.22
2022-08-27T10:34:15.390Z,21.25
2022-08-27T10:36:54.824Z,21.23
2022-08-27T10:39:47.412Z,21.21
2022-08-27T10:42:36.802Z,21.22
2022-08-27T10:45:31.225Z,21.24
2022-08-27T10:48:25.543Z,21.29
2022-08-27T10:51:03.731Z,21.32
2022-08-27T10:53:32.903Z,21.39
2022-08-27T10:56:23.078Z,21.49
2022-08-27T10:59:00.091Z,21.64
2022-08-27T11:01:49.663Z,21.86
2022-08-27T11:04:29.804Z,22.00
2022-08-27T11:07:10.676Z,22.11
2022-08-27T11:09:42.350Z,22.18
2022-08-27T11:12:15.247Z,22.30
2022-08-27T11:14:59.425Z,22.36
2022-08-27T11:18:04.025Z,22.42
2022-08-27T11:21:06.091Z,22.42
2022-08-27T11:23:38.872Z,22.39
2022-08-27T11:26:06.843Z,22.42
2022-08-27T11:28:39.941Z,22.47
2022-08-27T11:31:24.810Z,22.52
2022-08-27T11:33:58.539Z,22.53
2022-08-27T11:36:40.048Z,22.59
2022-08-27T11:39:30.522Z,22.65
2022-08-27T11:42:03.178Z,22.74
2022-08-27T11:44:31.067Z,22.82
2022-08-27T11:47:15.293Z,22.87
2022-08-27T11:49:52.122Z,22.85
2022-08-27T11:52:24.103Z,22.90
2022-08-27T11:54:56.778Z,23.00
2022-08-27T11:57:39.815Z,23.31
2022-08-27T12:00:28.785Z,23.72
2022-08-27T12:03:06.624Z,24.33
2022-08-27T12:05:55.962Z,24.98
2022-08-27T12:08:31.997Z,25.49
2022-08-27T12:10:59.690Z,25.86
2022-08-27T12:13:42.435Z,26.01
2022-08-27T12:16:19.684Z,26.32
2022-08-27T12:19:08.891Z,26.61
2022-08-27T12:21:41.572Z,26.76
2022-08-27T12:24:27.989Z,26.88
2022-08-27T12:27:03.881Z,27.13
2022-08-27T12:29:44.090Z,27.61
2022-08-27T12:32:31.889Z,27.84
2022-08-27T12:35:37.953Z,27.63
2022-08-27T12:39:01.697Z,27.76
2022-08-27T12:41:44.738Z,27.42
2022-08-27T12:44:32.661Z,26.96
2022-08-27T12:47:08.838Z,26.63
2022-08-27T12:49:42.871Z,26.39
2022-08-27T12:52:34.240Z,26.12
2022-08-27T12:55:36.180Z,25.89
2022-08-27T12:58:39.085Z,25.55
2022-08-27T13:01:25.518Z,25.38
2022-08-27T13:03:55.402Z,25.18
2022-08-27T13:06:28.473Z,25.07
2022-08-27T13:09:01.279Z,25.05
2022-08-27T13:11:33.926Z,25.37
2022-08-27T13:14:28.732Z,25.31
2022-08-27T13:17:01.609Z,25.11
2022-08-27T13:19:37.163Z,24.94
2022-08-27T13:22:06.442Z,24.83
2022-08-27T13:24:36.137Z,24.75
2022-08-27T13:27:06.815Z,24.67
2022-08-27T13:29:34.622Z,24.60
2022-08-27T13:32:02.425Z,24.70
2022-08-27T13:34:36.552Z,24.63
2022-08-27T13:37:07.989Z,24.56
2022-08-27T13:39:37.706Z,24.48
2022-08-27T13:42:07.333Z,24.39
2022-08-27T13:44:36.522Z,24.28
2022-08-27T13:47:06.988Z,24.23
2022-08-27T13:49:40.292Z,24.17
2022-08-27T13:52:33.930Z,24.09
2022-08-27T13:55:16.317Z,24.03
2022-08-27T13:57:49.215Z,23.91
2022-08-27T14:00:33.372Z,23.86
2022-08-27T14:03:03.238Z,23.84
2022-08-27T14:05:33.049Z,23.81
2022-08-27T14:08:15.504Z,23.81
2022-08-27T14:10:46.636Z,23.77
2022-08-27T14:13:17.265Z,23.75
2022-08-27T14:15:46.685Z,23.71
2022-08-27T14:18:48.431Z,23.73
2022-08-27T14:21:19.175Z,23.80
2022-08-27T14:23:47.170Z,23.84
2022-08-27T14:26:15.181Z,23.87
2022-08-27T14:28:43.788Z,24.00
2022-08-27T14:31:12.889Z,24.05
2022-08-27T14:33:40.924Z,24.01
2022-08-27T14:36:09.132Z,23.97
2022-08-27T14:38:40.934Z,23.87
2022-08-27T14:41:08.982Z,23.76
2022-08-27T14:43:37.152Z,23.65
2022-08-27T14:46:06.302Z,23.57
2022-08-27T14:48:34.726Z,23.43
2022-08-27T14:51:08.228Z,23.30
2022-08-27T14:53:36.002Z,23.23
2022-08-27T14:56:04.013Z,23.15
2022-08-27T14:58:31.850Z,23.06
2022-08-27T15:00:59.858Z,22.98
2022-08-27T15:03:27.805Z,22.90
2022-08-27T15:05:58.671Z,22.80
2022-08-27T15:08:32.294Z,22.73
2022-08-27T15:11:00.209Z,22.65
2022-08-27T15:13:28.584Z,22.57
2022-08-27T15:15:57.267Z,22.48
2022-08-27T15:18:25.040Z,22.43
2022-08-27T15:20:52.805Z,22.36
2022-08-27T15:23:23.740Z,22.31
2022-08-27T15:25:51.577Z,22.23
2022-08-27T15:28:19.477Z,22.20
2022-08-27T15:30:47.404Z,22.12
2022-08-27T15:33:15.259Z,21.98
2022-08-27T15:35:43.921Z,21.87
2022-08-27T15:38:11.905Z,21.76
2022-08-27T15:40:39.896Z,21.65
2022-08-27T15:43:08.133Z,21.59
2022-08-27T15:45:37.662Z,21.57
2022-08-27T15:48:05.616Z,21.52
2022-08-27T15:50:33.583Z,21.48
2022-08-27T15:53:07.595Z,21.47
2022-08-27T15:55:38.001Z,21.47
2022-08-27T15:58:05.905Z,21.51
2022-08-27T16:00:38.002Z,21.51
2022-08-27T16:03:10.717Z,21.55
2022-08-27T16:05:39.951Z,21.56
2022-08-27T16:08:09.136Z,21.59
2022-08-27T16:10:39.502Z,21.61
2022-08-27T16:13:07.276Z,21.63
2022-08-27T16:15:38.226Z,21.59
2022-08-27T16:18:06.207Z,21.56
2022-08-27T16:20:34.070Z,21.54
2022-08-27T16:23:02.630Z,21.53
2022-08-27T16:25:30.529Z,21.51
2022-08-27T16:28:02.030Z,21.47
2022-08-27T16:30:30.017Z,21.45
2022-08-27T16:32:57.807Z,21.41
2022-08-27T16:35:35.033Z,21.39
2022-08-27T16:38:02.855Z,21.37
2022-08-27T16:40:30.812Z,21.35
2022-08-27T16:42:58.915Z,21.31
2022-08-27T16:45:30.855Z,21.28
2022-08-27T16:48:17.162Z,21.24
2022-08-27T16:50:45.041Z,21.22
2022-08-27T16:53:16.947Z,21.18
2022-08-27T16:55:45.663Z,21.16
2022-08-27T16:58:23.285Z,21.12
2022-08-27T17:00:53.359Z,21.12
2022-08-27T17:03:21.693Z,21.14
2022-08-27T17:05:49.772Z,21.11
2022-08-27T17:08:28.496Z,21.10
2022-08-27T17:10:57.208Z,21.08
2022-08-27T17:13:28.341Z,21.05
2022-08-27T17:15:56.772Z,21.05
2022-08-27T17:18:25.594Z,21.04
2022-08-27T17:20:53.532Z,21.03
2022-08-27T17:23:27.559Z,20.98
2022-08-27T17:25:55.298Z,20.95
2022-08-27T17:28:23.208Z,20.95
2022-08-27T17:30:51.144Z,20.95
2022-08-27T17:33:30.931Z,20.94
2022-08-27T17:35:59.097Z,20.92
2022-08-27T17:38:26.848Z,20.90
2022-08-27T17:40:56.138Z,20.89
2022-08-27T17:43:23.963Z,20.90
2022-08-27T17:45:51.827Z,20.87
2022-08-27T17:48:24.821Z,20.87
2022-08-27T17:50:54.864Z,20.82
2022-08-27T17:53:22.612Z,20.75
2022-08-27T17:55:50.453Z,20.70
2022-08-27T17:58:18.233Z,20.64
2022-08-27T18:00:46.166Z,20.64
2022-08-27T18:03:18.973Z,20.61
2022-08-27T18:05:47.894Z,20.62
2022-08-27T18:08:16.123Z,20.59
2022-08-27T18:10:44.163Z,20.55
2022-08-27T18:13:14.211Z,20.52
2022-08-27T18:15:42.518Z,20.48
2022-08-27T18:18:11.210Z,20.44
2022-08-27T18:20:40.895Z,20.42
2022-08-27T18:23:11.016Z,20.36
2022-08-27T18:25:39.176Z,20.34
2022-08-27T18:28:11.087Z,20.33
2022-08-27T18:30:40.697Z,20.32
2022-08-27T18:33:09.203Z,20.28
2022-08-27T18:35:37.119Z,20.25
2022-08-27T18:38:05.332Z,20.24
2022-08-27T18:40:41.077Z,20.21
2022-08-27T18:43:08.971Z,20.21
2022-08-27T18:45:38.649Z,20.19
2022-08-27T18:48:18.119Z,20.18
2022-08-27T18:50:48.351Z,20.15
2022-08-27T18:53:17.821Z,20.16
2022-08-27T18:55:45.763Z,20.13
2022-08-27T18:58:13.780Z,20.12
2022-08-27T19:00:42.756Z,20.13
2022-08-27T19:03:11.034Z,20.11
2022-08-27T19:05:38.890Z,20.09
2022-08-27T19:08:10.302Z,20.05
2022-08-27T19:10:38.151Z,20.07
2022-08-27T19:13:05.956Z,20.06
2022-08-27T19:15:33.697Z,20.03
2022-08-27T19:18:04.417Z,20.01
2022-08-27T19:20:32.400Z,19.98
2022-08-27T19:23:00.778Z,19.95
2022-08-27T19:25:29.260Z,19.93
2022-08-27T19:27:57.048Z,19.91
2022-08-27T19:30:24.888Z,19.91
2022-08-27T19:32:55.053Z,19.89
2022-08-27T19:35:25.644Z,19.87
2022-08-27T19:37:53.578Z,19.88
2022-08-27T19:40:23.077Z,19.86
2022-08-27T19:42:51.279Z,19.88
2022-08-27T19:45:23.059Z,19.88
2022-08-27T19:47:52.603Z,19.85
2022-08-27T19:50:20.722Z,19.85
2022-08-27T19:52:49.268Z,19.85
2022-08-27T19:55:17.195Z,19.83
2022-08-27T19:57:45.371Z,19.79
2022-08-27T20:00:14.476Z,19.72
2022-08-27T20:02:42.281Z,19.66
2022-08-27T20:05:18.610Z,19.62
2022-08-27T20:07:48.414Z,19.55
2022-08-27T20:10:36.297Z,19.56
2022-08-27T20:13:05.257Z,19.56
2022-08-27T20:15:33.585Z,19.57
2022-08-27T20:18:02.356Z,19.57
2022-08-27T20:20:30.300Z,19.57
2022-08-27T20:22:58.341Z,19.58
2022-08-27T20:25:26.435Z,19.57
2022-08-27T20:27:54.221Z,19.55
2022-08-27T20:30:24.075Z,19.51
2022-08-27T20:32:51.948Z,19.54
2022-08-27T20:35:20.236Z,19.55
2022-08-27T20:37:48.012Z,19.58
2022-08-27T20:40:22.117Z,19.56
2022-08-27T20:42:49.936Z,19.55
2022-08-27T20:45:17.717Z,19.55
2022-08-27T20:47:46.455Z,19.55
2022-08-27T20:50:15.152Z,19.54
2022-08-27T20:52:43.061Z,19.48
2022-08-27T20:55:11.162Z,19.45
2022-08-27T20:58:02.088Z,19.41
2022-08-27T21:00:34.023Z,19.40
2022-08-27T21:03:01.857Z,19.43
2022-08-27T21:05:30.719Z,19.42
2022-08-27T21:07:58.459Z,19.35
2022-08-27T21:10:26.251Z,19.33
2022-08-27T21:12:54.022Z,19.35
2022-08-27T21:15:21.865Z,19.33
2022-08-27T21:17:49.609Z,19.32
2022-08-27T21:20:17.501Z,19.26
2022-08-27T21:22:45.484Z,19.22
2022-08-27T21:25:14.081Z,19.20
2022-08-27T21:27:42.531Z,19.18
2022-08-27T21:30:12.161Z,19.12
2022-08-27T21:32:39.993Z,19.07
2022-08-27T21:35:08.079Z,19.04
2022-08-27T21:37:35.995Z,19.02
2022-08-27T21:40:04.812Z,19.02
2022-08-27T21:42:32.643Z,19.02
2022-08-27T21:45:00.442Z,19.01
2022-08-27T21:47:28.409Z,18.99
2022-08-27T21:49:56.263Z,18.98
2022-08-27T21:52:24.891Z,18.97
2022-08-27T21:54:52.601Z,18.96
2022-08-27T21:57:20.909Z,18.95
2022-08-27T21:59:49.832Z,18.94
2022-08-27T22:02:38.614Z,18.92
2022-08-27T22:05:06.915Z,18.89
2022-08-27T22:07:34.680Z,18.83
2022-08-27T22:10:02.528Z,18.79
2022-08-27T22:12:30.364Z,18.72
2022-08-27T22:14:58.152Z,18.72
2022-08-27T22:17:26.018Z,18.71
2022-08-27T22:19:53.857Z,18.67
2022-08-27T22:22:21.689Z,18.65
2022-08-27T22:24:49.472Z,18.64
2022-08-27T22:27:19.651Z,18.61
2022-08-27T22:29:47.412Z,18.61
2022-08-27T22:32:15.180Z,18.62
2022-08-27T22:34:42.960Z,18.62
2022-08-27T22:37:10.781Z,18.61
2022-08-27T22:39:38.701Z,18.56
2022-08-27T22:42:07.043Z,18.52
2022-08-27T22:44:34.915Z,18.53
2022-08-27T22:47:02.886Z,18.51
2022-08-27T22:49:30.778Z,18.52
2022-08-27T22:51:58.571Z,18.49
2022-08-27T22:54:26.308Z,18.44
2022-08-27T22:56:54.111Z,18.38
2022-08-27T22:59:21.926Z,18.37
2022-08-27T23:01:49.732Z,18.36
2022-08-27T23:04:17.536Z,18.34
2022-08-27T23:06:45.413Z,18.34
2022-08-27T23:09:13.204Z,18.35
2022-08-27T23:11:40.961Z,18.34
2022-08-27T23:14:08.738Z,18.34
2022-08-27T23:16:36.524Z,18.34
2022-08-27T23:19:04.375Z,18.35
2022-08-27T23:21:32.256Z,18.35
2022-08-27T23:24:00.068Z,18.32
2022-08-27T23:26:46.549Z,18.31
2022-08-27T23:29:14.291Z,18.31
2022-08-27T23:31:42.114Z,18.30
2022-08-27T23:34:09.991Z,18.29
2022-08-27T23:36:38.383Z,18.27
2022-08-27T23:39:06.132Z,18.25
2022-08-27T23:41:33.960Z,18.23
2022-08-27T23:44:01.776Z,18.23
2022-08-27T23:46:29.719Z,18.21
2022-08-27T23:48:57.538Z,18.21
2022-08-27T23:51:25.431Z,18.20
2022-08-27T23:53:53.270Z,18.21
2022-08-27T23:56:21.042Z,18.22
2022-08-27T23:58:56.419Z,18.24
